Terminal Aerodrome Forecast
Issued by NWS Binghamton, NY

Home | Current Version | Previous Version | Text Only | Print | Product List | Glossary On
Versions: 1 2 3 4 5 6 7 8 9 10 11 12 13 14 15 16 17 18 19 20 21
000
FTUS41 KBGM 260800 AAA
TAFSYR
TAF AMD
KSYR 260844Z 2609/2706 27015G25KT P6SM SCT025 OVC035
      TEMPO 2609/2613 -SHRA OVC025
     FM261300 31020G30KT P6SM SCT025 OVC035
     FM270200 31015KT P6SM SCT015 OVC025=

USA.gov is the U.S. government's official web portal to all federal, state and local government web resources and services.